SULAYMANIYAH INTERNATIONAL AIRPORT
  • SulyAir
  • SulyAir
1 1
Arrival

ArrivalsMore >>

Departure

DeparturesMore >>

TAF

TAF ORSU 251100Z 2512/2612 24010KT CAVOK
BECMG 2516/2518 32006KT

BECMG 2610/2612 18010KT 9999 FEW045=

METARs

METAR ORSU 251600Z 31008KT CAVOK 22/M06 Q1019=